No se requiere un especial cuidado respecto a la situación meteorológica.   -   No hay avisos

Informes METAR

 

LEZL - Sevilla, Spain
Distancia de la estación: ENE 8km
Actualización: 03/09/2015 10:30
Parcialmente nuboso
Parcialmente nuboso
 Viento de NO
Viento: NO 6 km/h
Temperatura: 19°C
Rocío: 12°C
Humedad: 64%
Barómetro: 1016 hPa
Nubes: Parcialmente nuboso
Visibilidad: 10 km
Detalles de las nubes: Parcialmente nuboso 427 m
2015/09/03 08:30 LEZL 030830Z 31003KT 260V350 9999 SCT014 19/12 Q1016 NOSIG
LEMO - Morón, Spain
Distancia de la estación: SE 43km
Actualización: 03/09/2015 10:00
Poco nuboso
Poco nuboso
 Viento de OSO
Viento: OSO 13 km/h
Temperatura: 19°C
Rocío: 13°C
Humedad: 68%
Barómetro: 1016 hPa
Nubes: Poco nuboso
Visibilidad: 10 km
Detalles de las nubes: Poco nuboso 610 m
2015/09/03 08:00 LEMO 030800Z 25007KT 210V280 9999 FEW020 19/13 Q1016 NOSIG
LEJR - Jeréz, Spain
Distancia de la estación: S 71km
Actualización: 03/09/2015 10:30
Despejado
Despejado
 Viento de ONO
Viento: ONO 11 km/h
Temperatura: 20°C
Rocío: 14°C
Humedad: 69%
Barómetro: 1017 hPa
Resumen: Despejado
Visibilidad: mayor de 10 km
2015/09/03 08:30 LEJR 030830Z 29006KT 240V360 CAVOK 20/14 Q1017
 
LERT - Rota, Spain
Distancia de la estación: SSO 89km
Actualización: 03/09/2015 10:00
Poco nuboso
Poco nuboso
 Viento de ONO
Viento: ONO 17 km/h
Temperatura: 20°C
Rocío: 14°C
Humedad: 69%
Barómetro: 1017 hPa
Nubes: Poco nuboso
Visibilidad: 10 km
Detalles de las nubes: Poco nuboso 610 m
2015/09/03 08:00 LERT 030800Z 29009KT 260V320 9999 FEW020 20/14 Q1017 NOSIG
LEMG - Málaga, Spain
Distancia de la estación: ESE 157km
Actualización: 03/09/2015 10:30
Poco nuboso
Poco nuboso
 Viento de O
Viento: O 19 km/h
Temperatura: 27°C
Índice de calor: 27°C
Rocío: 14°C
Humedad: 45%
Barómetro: 1014 hPa
Nubes: Poco nuboso
Visibilidad: 10 km
Detalles de las nubes: Poco nuboso 1219 m
2015/09/03 08:30 LEMG 030830Z 28010KT 240V300 9999 FEW040 27/14 Q1014 NOSIG
LEBA - Córdoba, Spain
Distancia de la estación: ENE 115km
Actualización: 03/09/2015 10:00
Parcialmente nuboso
Parcialmente nuboso
 Viento de O
Viento: O 6 km/h
Temperatura: 19°C
Rocío: 16°C
Humedad: 83%
Barómetro: 1016 hPa
Nubes: Parcialmente nuboso
Visibilidad: 10 km
Detalles de las nubes: Parcialmente nuboso 762 m
2015/09/03 08:00 LEBA 030800Z 27003KT 230V320 9999 SCT025 19/16 Q1016
 
LEGR - Granada, Spain
Distancia de la estación: E 198km
Actualización: 03/09/2015 10:30
Poco nuboso
Poco nuboso
 Viento de variable
Viento: variable 2 km/h
Temperatura: 20°C
Rocío: 13°C
Humedad: 64%
Barómetro: 1017 hPa
Nubes: Poco nuboso
Visibilidad: 10 km
Detalles de las nubes: Poco nuboso 1829 m
2015/09/03 08:30 LEGR 030830Z VRB01KT 9999 FEW060 20/13 Q1017
LEAM - Almería, Spain
Distancia de la estación: E 326km
Actualización: 03/09/2015 10:30
Poco nuboso
Poco nuboso
 Viento de OSO
Viento: OSO 28 km/h
Temperatura: 25°C
Rocío: 20°C
Humedad: 74%
Barómetro: 1012 hPa
Nubes: Poco nuboso
Visibilidad: 10 km
Detalles de las nubes: Poco nuboso 610 m
2015/09/03 08:30 LEAM 030830Z 24015KT 200V260 9999 FEW020 25/20 Q1012
LEMD - Madrid/Barajas, Spain
Distancia de la estación: NNE 402km
Actualización: 03/09/2015 10:30
Despejado
Despejado
 Viento de SSO
Viento: SSO 11 km/h
Temperatura: 21°C
Rocío: 6°C
Humedad: 38%
Barómetro: 1015 hPa
Resumen: Despejado
Visibilidad: mayor de 10 km
2015/09/03 08:30 LEMD 030830Z 21006KT 180V250 CAVOK 21/06 Q1015 NOSIG
 
LEVD - Valladolid, Spain
Distancia de la estación: N 492km
Actualización: 03/09/2015 10:30
Parcialmente nuboso
Parcialmente nuboso
 Viento de NE
Viento: NE 28 km/h
Temperatura: 16°C
Rocío: 10°C
Humedad: 68%
Barómetro: 1017 hPa
Nubes: Parcialmente nuboso
Visibilidad: 10 km
Detalles de las nubes: Parcialmente nuboso 1280 m
2015/09/03 08:30 LEVD 030830Z 05015KT 9999 SCT042 16/10 Q1017
LEBL - Barcelona, Spain
Distancia de la estación: NE 816km
Actualización: 03/09/2015 10:30
Muy nuboso
Muy nuboso
 Viento de ENE
Viento: ENE 22 km/h
Temperatura: 21°C
Rocío: 17°C
Humedad: 78%
Barómetro: 1014 hPa
Nubes: Muy nuboso
Visibilidad: 10 km
Detalles de las nubes: Poco nuboso 488 m
Poco nuboso 610 m
Muy nuboso 914 m
2015/09/03 08:30 LEBL 030830Z 07012KT 040V100 9999 FEW016 FEW020TCU BKN030 21/17 Q1014 NOSIG
LEVC - Valencia, Spain
Distancia de la estación: ENE 535km
Actualización: 03/09/2015 10:30
Poco nuboso
Poco nuboso
 Viento de variable
Viento: variable 4 km/h
Temperatura: 26°C
Rocío: 21°C
Humedad: 74%
Barómetro: 1012 hPa
Nubes: Poco nuboso
Visibilidad: 10 km
Detalles de las nubes: Poco nuboso 549 m
2015/09/03 08:30 LEVC 030830Z VRB02KT 9999 FEW018 26/21 Q1012 NOSIG